createdAt,value
2023-02-01T00:00:50.767Z,6.59
2023-02-01T00:05:57.898Z,6.60
2023-02-01T00:11:01.590Z,6.51
2023-02-01T00:16:09.561Z,6.65
2023-02-01T00:21:12.142Z,6.56
2023-02-01T00:26:32.540Z,6.74
2023-02-01T00:31:34.321Z,6.80
2023-02-01T00:36:35.973Z,6.73
2023-02-01T00:41:37.696Z,6.73
2023-02-01T00:46:39.375Z,6.79
2023-02-01T00:51:40.996Z,6.81
2023-02-01T00:56:42.649Z,6.72
2023-02-01T01:01:44.562Z,6.80
2023-02-01T01:06:46.225Z,6.71
2023-02-01T01:11:47.824Z,6.64
2023-02-01T01:16:51.474Z,6.66
2023-02-01T01:21:53.089Z,6.57
2023-02-01T01:26:54.734Z,6.53
2023-02-01T01:31:56.453Z,6.78
2023-02-01T01:36:58.079Z,6.75
2023-02-01T01:41:59.803Z,6.68
2023-02-01T01:47:03.206Z,6.62
2023-02-01T01:52:05.185Z,6.65
2023-02-01T01:57:18.715Z,6.60
2023-02-01T02:02:20.419Z,6.82
2023-02-01T02:07:27.999Z,6.75
2023-02-01T02:12:29.646Z,6.80
2023-02-01T02:17:42.296Z,6.65
2023-02-01T02:23:07.682Z,6.75
2023-02-01T02:28:27.505Z,6.58
2023-02-01T02:34:00.861Z,6.71
2023-02-01T02:39:12.684Z,6.59
2023-02-01T02:44:39.083Z,6.63
2023-02-01T02:49:42.164Z,6.65
2023-02-01T02:54:47.869Z,6.52
2023-02-01T03:00:10.204Z,6.57
2023-02-01T03:05:12.114Z,6.55
2023-02-01T03:10:35.681Z,6.47
2023-02-01T03:15:50.425Z,6.49
2023-02-01T03:20:53.683Z,6.49
2023-02-01T03:25:56.759Z,6.54
2023-02-01T03:30:58.719Z,6.41
2023-02-01T03:36:23.717Z,6.51
2023-02-01T03:41:39.005Z,6.54
2023-02-01T03:46:49.548Z,6.59
2023-02-01T03:51:51.972Z,6.59
2023-02-01T03:56:55.323Z,6.66
2023-02-01T04:01:57.338Z,6.44
2023-02-01T04:06:59.001Z,6.63
2023-02-01T04:12:00.740Z,6.41
2023-02-01T04:17:02.372Z,6.52
2023-02-01T04:22:03.944Z,6.35
2023-02-01T04:27:05.663Z,6.62
2023-02-01T04:32:07.247Z,6.51
2023-02-01T04:37:09.009Z,6.45
2023-02-01T04:42:10.625Z,6.57
2023-02-01T04:47:12.263Z,6.35
2023-02-01T04:52:13.836Z,6.53
2023-02-01T04:57:15.945Z,6.46
2023-02-01T05:02:17.638Z,6.54
2023-02-01T05:07:19.242Z,6.50
2023-02-01T05:12:39.597Z,6.54
2023-02-01T05:17:41.305Z,6.43
2023-02-01T05:22:43.425Z,6.62
2023-02-01T05:27:45.188Z,6.57
2023-02-01T05:32:46.748Z,6.61
2023-02-01T05:37:48.382Z,6.70
2023-02-01T05:42:49.938Z,6.66
2023-02-01T05:47:52.058Z,6.67
2023-02-01T05:52:53.655Z,6.53
2023-02-01T05:57:55.244Z,6.63
2023-02-01T06:02:57.035Z,6.57
2023-02-01T06:07:59.451Z,6.64
2023-02-01T06:13:01.294Z,6.71
2023-02-01T06:18:02.955Z,6.59
2023-02-01T06:23:06.568Z,6.56
2023-02-01T06:28:09.146Z,6.59
2023-02-01T06:33:10.710Z,6.65
2023-02-01T06:38:12.658Z,6.61
2023-02-01T06:43:14.215Z,6.62
2023-02-01T06:48:15.813Z,6.71
2023-02-01T06:53:17.646Z,6.51
2023-02-01T06:58:19.279Z,6.64
2023-02-01T07:03:21.167Z,6.55
2023-02-01T07:08:22.751Z,6.69
2023-02-01T07:13:24.398Z,6.69
2023-02-01T07:18:27.005Z,6.64
2023-02-01T07:23:29.406Z,6.73
2023-02-01T07:28:34.196Z,6.77
2023-02-01T07:33:36.214Z,6.58
2023-02-01T07:38:37.853Z,6.57
2023-02-01T07:43:39.525Z,6.57
2023-02-01T07:48:41.114Z,6.65
2023-02-01T07:53:43.577Z,6.28
2023-02-01T07:58:49.097Z,6.40
2023-02-01T08:03:55.066Z,6.55
2023-02-01T08:08:56.738Z,6.71
2023-02-01T08:13:59.506Z,6.54
2023-02-01T08:19:01.154Z,6.58
2023-02-01T08:24:04.522Z,6.59
2023-02-01T08:29:08.152Z,6.46
2023-02-01T08:34:10.126Z,6.53
2023-02-01T08:39:12.374Z,6.67
2023-02-01T08:44:13.916Z,6.57
2023-02-01T08:49:15.521Z,6.69
2023-02-01T08:54:17.103Z,6.78
2023-02-01T08:59:18.747Z,6.99
2023-02-01T09:04:20.421Z,6.92
2023-02-01T09:09:25.071Z,7.00
2023-02-01T09:14:26.667Z,7.05
2023-02-01T09:19:28.269Z,7.11
2023-02-01T09:24:29.929Z,6.85
2023-02-01T09:29:31.595Z,6.95
2023-02-01T09:34:33.942Z,6.90
2023-02-01T09:39:36.105Z,6.92
2023-02-01T09:44:52.431Z,6.90
2023-02-01T09:50:05.990Z,6.76
2023-02-01T09:55:16.472Z,6.82
2023-02-01T10:00:27.664Z,6.86
2023-02-01T10:05:58.270Z,6.64
2023-02-01T10:11:08.903Z,6.61
2023-02-01T10:16:20.213Z,6.42
2023-02-01T10:21:49.441Z,6.57
2023-02-01T10:27:17.096Z,6.55
2023-02-01T10:32:22.974Z,6.45
2023-02-01T10:37:32.288Z,6.50
2023-02-01T10:42:33.954Z,6.63
2023-02-01T10:47:35.658Z,6.34
2023-02-01T10:53:05.638Z,6.71
2023-02-01T10:58:21.469Z,6.75
2023-02-01T11:03:35.357Z,7.12
2023-02-01T11:08:44.952Z,6.75
2023-02-01T11:13:53.568Z,6.87
2023-02-01T11:18:56.451Z,6.85
2023-02-01T11:24:03.382Z,6.95
2023-02-01T11:29:11.680Z,6.74
2023-02-01T11:34:16.335Z,6.89
2023-02-01T11:39:23.907Z,6.82
2023-02-01T11:44:32.731Z,6.89
2023-02-01T11:49:34.273Z,6.97
2023-02-01T11:55:12.838Z,7.20
2023-02-01T12:00:20.337Z,7.07
2023-02-01T12:05:24.665Z,7.02
2023-02-01T12:10:45.339Z,7.03
2023-02-01T12:16:03.742Z,7.25
2023-02-01T12:21:15.315Z,7.20
2023-02-01T12:26:41.841Z,7.22
2023-02-01T12:32:02.042Z,7.24
2023-02-01T12:37:03.614Z,7.32
2023-02-01T12:42:05.222Z,7.25
2023-02-01T12:47:12.747Z,7.24
2023-02-01T12:52:35.655Z,7.34
2023-02-01T12:57:42.076Z,7.31
2023-02-01T13:02:53.688Z,7.28
2023-02-01T13:08:01.440Z,7.43
2023-02-01T13:13:18.355Z,7.50
2023-02-01T13:18:21.849Z,7.52
2023-02-01T13:23:32.498Z,7.56
2023-02-01T13:28:53.977Z,7.56
2023-02-01T13:33:59.807Z,7.53
2023-02-01T13:39:13.724Z,7.53
2023-02-01T13:44:43.359Z,7.63
2023-02-01T13:49:45.015Z,7.69
2023-02-01T13:54:46.567Z,7.65
2023-02-01T13:59:53.187Z,7.56
2023-02-01T14:04:54.880Z,7.58
2023-02-01T14:09:56.486Z,7.52
2023-02-01T14:15:22.853Z,7.56
2023-02-01T14:20:41.946Z,7.50
2023-02-01T14:25:44.528Z,7.59
2023-02-01T14:30:48.391Z,7.61
2023-02-01T14:36:01.816Z,7.63
2023-02-01T14:41:31.624Z,7.56
2023-02-01T14:47:04.251Z,7.36
2023-02-01T14:52:10.951Z,7.64
2023-02-01T14:57:20.178Z,7.52
2023-02-01T15:02:25.921Z,7.51
2023-02-01T15:07:28.208Z,7.28
2023-02-01T15:12:32.760Z,7.42
2023-02-01T15:17:37.038Z,7.44
2023-02-01T15:22:38.627Z,7.39
2023-02-01T15:27:41.108Z,7.44
2023-02-01T15:32:42.767Z,7.30
2023-02-01T15:37:44.334Z,7.09
2023-02-01T15:42:53.529Z,7.22
2023-02-01T15:47:57.428Z,7.19
2023-02-01T15:52:59.072Z,7.21
2023-02-01T15:58:00.768Z,7.20
2023-02-01T16:03:05.486Z,7.07
2023-02-01T16:08:18.491Z,7.28
2023-02-01T16:13:23.820Z,7.02
2023-02-01T16:18:25.387Z,6.45
2023-02-01T16:23:27.144Z,6.74
2023-02-01T16:28:28.785Z,6.48
2023-02-01T16:33:30.528Z,6.46
2023-02-01T16:38:32.404Z,6.57
2023-02-01T16:43:34.007Z,6.72
2023-02-01T16:48:36.814Z,6.75
2023-02-01T16:53:53.162Z,6.65
2023-02-01T16:58:55.446Z,6.67
2023-02-01T17:03:57.249Z,6.78
2023-02-01T17:08:59.858Z,6.00
2023-02-01T17:14:18.727Z,5.84
2023-02-01T17:19:24.384Z,5.63
2023-02-01T17:24:35.728Z,5.92
2023-02-01T17:29:37.429Z,5.60
2023-02-01T17:34:39.055Z,5.61
2023-02-01T17:39:56.059Z,5.29
2023-02-01T17:45:03.091Z,5.33
2023-02-01T17:50:04.974Z,5.71
2023-02-01T17:55:16.688Z,5.48
2023-02-01T18:00:19.259Z,5.47
2023-02-01T18:05:27.697Z,5.41
2023-02-01T18:10:29.405Z,5.70
2023-02-01T18:15:31.851Z,5.67
2023-02-01T18:20:35.657Z,5.61
2023-02-01T18:25:38.624Z,5.77
2023-02-01T18:30:40.516Z,5.90
2023-02-01T18:35:42.337Z,5.90
2023-02-01T18:40:49.193Z,5.63
2023-02-01T18:45:51.076Z,5.70
2023-02-01T18:50:57.274Z,5.81
2023-02-01T18:55:59.737Z,5.86
2023-02-01T19:01:06.490Z,5.71
2023-02-01T19:06:08.731Z,5.73
2023-02-01T19:11:10.451Z,5.67
2023-02-01T19:16:13.560Z,5.67
2023-02-01T19:21:15.497Z,5.82
2023-02-01T19:26:18.007Z,5.79
2023-02-01T19:31:19.738Z,5.47
2023-02-01T19:36:21.341Z,5.80
2023-02-01T19:41:22.927Z,5.69
2023-02-01T19:46:25.455Z,5.60
2023-02-01T19:51:27.051Z,5.71
2023-02-01T19:56:28.643Z,5.88
2023-02-01T20:01:33.380Z,5.93
2023-02-01T20:06:38.476Z,5.89
2023-02-01T20:11:40.129Z,5.79
2023-02-01T20:16:42.552Z,5.93
2023-02-01T20:21:44.448Z,5.99
2023-02-01T20:26:46.942Z,5.81
2023-02-01T20:31:48.676Z,5.90
2023-02-01T20:36:50.431Z,6.01
2023-02-01T20:41:52.059Z,5.61
2023-02-01T20:46:53.710Z,5.70
2023-02-01T20:51:57.780Z,5.64
2023-02-01T20:56:59.379Z,5.78
2023-02-01T21:02:01.476Z,5.48
2023-02-01T21:07:03.510Z,5.51
2023-02-01T21:12:05.264Z,5.72
2023-02-01T21:17:06.818Z,5.76
2023-02-01T21:22:12.232Z,5.76
2023-02-01T21:27:13.930Z,5.63
2023-02-01T21:32:15.715Z,5.53
2023-02-01T21:37:17.301Z,5.65
2023-02-01T21:42:21.789Z,5.78
2023-02-01T21:47:26.023Z,5.91
2023-02-01T21:52:28.443Z,5.64
2023-02-01T21:57:30.056Z,5.63
2023-02-01T22:02:31.687Z,5.32
2023-02-01T22:07:35.896Z,5.76
2023-02-01T22:12:37.671Z,5.83
2023-02-01T22:17:39.395Z,5.63
2023-02-01T22:22:41.401Z,5.67
2023-02-01T22:28:31.090Z,5.76
2023-02-01T22:33:04.538Z,5.80
2023-02-01T22:38:06.103Z,5.77
2023-02-01T22:43:07.732Z,5.63
2023-02-01T22:48:09.382Z,5.80
2023-02-01T22:53:11.138Z,5.84
2023-02-01T22:58:12.830Z,5.84
2023-02-01T23:03:14.480Z,5.90
2023-02-01T23:08:16.091Z,5.85
2023-02-01T23:13:17.701Z,5.82
2023-02-01T23:18:19.298Z,5.94
2023-02-01T23:23:21.003Z,5.89
2023-02-01T23:28:22.569Z,5.78
2023-02-01T23:33:25.651Z,5.67
2023-02-01T23:38:27.970Z,5.44
2023-02-01T23:43:48.212Z,5.80
2023-02-01T23:48:52.847Z,5.76
2023-02-01T23:53:55.121Z,5.78
2023-02-01T23:58:57.098Z,5.52
